Time;durP1;ratioP1;P1;durP2;ratioP2;P2;SDS_P1;SDS_P2;PMS_P1;PMS_P2;Temp;Humidity;BMP_temperature;BMP_pressure;BME280_temperature;BME280_humidity;BME280_pressure;Samples;Min_cycle;Max_cycle;Signal;HPM_P1;HPM_P2
2022/01/27 00:00:38;;;;;;;36.33;15.35;;;6.00;99.90;;;;;;5080906;28;20499;-59
2022/01/27 00:03:29;;;;;;;30.25;14.98;;;6.00;99.90;;;;;;5063597;28;20048;-58
2022/01/27 00:06:00;;;;;;;37.70;15.60;;;6.00;99.90;;;;;;5080713;28;20044;-59
2022/01/27 00:08:53;;;;;;;31.85;15.00;;;6.00;99.90;;;;;;5063894;28;20059;-59
2022/01/27 00:11:15;;;;;;;35.10;16.50;;;6.00;99.90;;;;;;5080275;28;20068;-59
2022/01/27 00:14:04;;;;;;;36.15;16.33;;;6.00;99.90;;;;;;5060486;28;20123;-59
2022/01/27 00:16:31;;;;;;;32.53;15.48;;;5.90;99.90;;;;;;5061229;28;20052;-59
2022/01/27 00:18:57;;;;;;;29.30;15.20;;;6.00;99.90;;;;;;5042711;28;20114;-59
2022/01/27 00:21:26;;;;;;;28.58;14.35;;;6.00;99.90;;;;;;5042816;28;20049;-59
2022/01/27 00:23:53;;;;;;;37.47;15.48;;;6.00;99.90;;;;;;5042638;28;20147;-59
2022/01/27 00:26:19;;;;;;;34.90;15.38;;;6.00;99.90;;;;;;5060655;28;20064;-59
2022/01/27 00:28:47;;;;;;;39.75;17.52;;;5.90;99.90;;;;;;5059477;28;20040;-59
2022/01/27 00:31:13;;;;;;;29.73;15.60;;;6.00;99.90;;;;;;5080397;28;20040;-59
2022/01/27 00:33:39;;;;;;;33.97;15.60;;;6.00;99.90;;;;;;5046561;28;20041;-59
2022/01/27 00:36:06;;;;;;;34.17;16.25;;;6.00;99.90;;;;;;5080269;28;20048;-59
2022/01/27 00:38:31;;;;;;;33.47;16.75;;;5.90;99.90;;;;;;5080841;28;20111;-59
2022/01/27 00:40:58;;;;;;;38.00;17.85;;;5.90;99.90;;;;;;5062173;28;20466;-59
2022/01/27 00:43:24;;;;;;;34.42;17.42;;;5.90;99.90;;;;;;5080387;28;20051;-58
2022/01/27 00:45:50;;;;;;;38.20;15.85;;;5.90;99.90;;;;;;5082688;28;20078;-58
2022/01/27 00:48:17;;;;;;;35.92;17.25;;;5.90;99.90;;;;;;5100304;28;20044;-58
2022/01/27 00:50:47;;;;;;;30.05;16.13;;;5.90;99.90;;;;;;5082780;28;20494;-56
2022/01/27 00:53:31;;;;;;;33.78;16.90;;;5.90;99.90;;;;;;5081726;28;20048;-58
2022/01/27 00:56:04;;;;;;;37.30;18.38;;;5.90;99.90;;;;;;5100271;28;20104;-58
2022/01/27 00:59:17;;;;;;;34.75;15.95;;;5.90;99.90;;;;;;5100381;28;20105;-58
2022/01/27 01:01:27;;;;;;;30.13;14.43;;;5.90;99.90;;;;;;5095222;28;20052;-57
2022/01/27 01:03:57;;;;;;;31.05;16.48;;;5.80;99.90;;;;;;5081968;28;20838;-58
2022/01/27 01:32:54;;;;;;;36.67;19.58;;;5.60;99.90;;;;;;5099657;28;20501;-59
2022/01/27 01:35:28;;;;;;;33.28;18.42;;;5.50;99.90;;;;;;5065669;28;20048;-58
2022/01/27 01:37:57;;;;;;;41.75;20.73;;;5.60;99.90;;;;;;5081856;28;20466;-59
2022/01/27 01:40:24;;;;;;;34.63;19.85;;;5.60;99.90;;;;;;5099234;28;20048;-59
2022/01/27 01:42:50;;;;;;;35.75;18.05;;;5.60;99.90;;;;;;5099436;28;20040;-60
2022/01/27 01:45:20;;;;;;;37.80;18.25;;;5.50;99.90;;;;;;5081049;28;20052;-60
2022/01/27 01:47:47;;;;;;;35.28;18.45;;;5.60;99.90;;;;;;5098972;28;20028;-60
2022/01/27 01:50:14;;;;;;;38.55;19.88;;;5.50;99.90;;;;;;5099529;28;20043;-59
2022/01/27 01:52:41;;;;;;;37.97;19.38;;;5.60;99.90;;;;;;5099209;28;20040;-59
2022/01/27 01:55:09;;;;;;;40.17;21.58;;;5.50;99.90;;;;;;5081591;28;20103;-59
2022/01/27 01:57:35;;;;;;;35.30;19.33;;;5.50;99.90;;;;;;5099389;28;20043;-59
2022/01/27 02:00:02;;;;;;;37.60;21.63;;;5.50;99.90;;;;;;5081006;28;20044;-59
2022/01/27 02:02:28;;;;;;;38.75;20.13;;;5.50;99.90;;;;;;5099254;28;20048;-59
2022/01/27 02:04:55;;;;;;;39.35;20.08;;;5.50;99.90;;;;;;5080760;28;20125;-60
2022/01/27 02:07:43;;;;;;;37.45;18.75;;;5.50;99.90;;;;;;5099715;28;20402;-59
2022/01/27 02:18:27;;;;;;;39.72;21.25;;;5.60;99.90;;;;;;5035939;28;20119;-59
2022/01/27 02:20:53;;;;;;;38.70;21.27;;;5.50;99.90;;;;;;5036121;28;20076;-59
2022/01/27 02:23:19;;;;;;;39.65;20.85;;;5.50;99.90;;;;;;5064896;28;20048;-60
2022/01/27 02:25:45;;;;;;;45.00;20.98;;;5.60;99.90;;;;;;5099135;28;20054;-60
2022/01/27 02:28:10;;;;;;;39.65;18.83;;;5.60;99.90;;;;;;5080945;28;20040;-59
2022/01/27 02:30:36;;;;;;;43.13;21.45;;;5.60;99.90;;;;;;5080639;28;20047;-61
2022/01/27 02:33:03;;;;;;;38.55;20.75;;;5.60;99.90;;;;;;5081333;28;20125;-60
2022/01/27 02:35:32;;;;;;;38.92;21.75;;;5.60;99.90;;;;;;5098712;28;20040;-60
2022/01/27 02:37:58;;;;;;;39.38;19.48;;;5.70;99.90;;;;;;5099289;28;20044;-60
2022/01/27 02:40:26;;;;;;;38.28;18.85;;;5.70;99.90;;;;;;5098645;28;20078;-60
2022/01/27 02:42:53;;;;;;;44.13;23.73;;;5.70;99.90;;;;;;5098723;28;20040;-59
2022/01/27 02:45:27;;;;;;;38.67;19.67;;;5.70;99.90;;;;;;5080359;28;20107;-59
2022/01/27 02:47:53;;;;;;;39.85;20.20;;;5.80;99.90;;;;;;5098424;28;20549;-60
2022/01/27 02:50:19;;;;;;;38.33;22.20;;;5.70;99.90;;;;;;5099012;28;20067;-59
2022/01/27 02:52:45;;;;;;;42.83;21.02;;;5.70;99.90;;;;;;5098642;28;20551;-60
2022/01/27 02:55:11;;;;;;;42.83;20.77;;;5.80;99.90;;;;;;5081243;28;20250;-59
2022/01/27 02:57:37;;;;;;;37.15;21.42;;;5.70;99.90;;;;;;5098651;28;20409;-58
2022/01/27 03:00:04;;;;;;;40.22;21.05;;;5.70;99.90;;;;;;5098444;28;20052;-59
2022/01/27 03:02:30;;;;;;;42.90;21.92;;;5.80;99.90;;;;;;5098652;28;20127;-59
2022/01/27 03:04:55;;;;;;;41.10;22.98;;;5.80;99.90;;;;;;5098383;28;20040;-59
2022/01/27 03:07:21;;;;;;;41.42;22.55;;;5.80;99.90;;;;;;5099260;28;20043;-59
2022/01/27 03:09:47;;;;;;;38.28;20.15;;;5.80;99.90;;;;;;5098310;28;20040;-59
2022/01/27 03:12:13;;;;;;;41.85;23.38;;;5.80;99.90;;;;;;5108284;28;20062;-60
2022/01/27 03:14:40;;;;;;;33.47;20.23;;;5.80;99.90;;;;;;5118726;28;20028;-59
2022/01/27 03:17:08;;;;;;;46.55;22.30;;;5.80;99.90;;;;;;5083885;28;20039;-59
2022/01/27 03:19:35;;;;;;;38.58;21.58;;;5.70;99.90;;;;;;5100328;28;20080;-59
2022/01/27 03:22:03;;;;;;;40.25;21.13;;;5.80;99.90;;;;;;5118776;28;20647;-59
2022/01/27 03:24:30;;;;;;;41.22;19.98;;;5.80;99.90;;;;;;5122264;28;20501;-59
2022/01/27 03:26:56;;;;;;;41.92;23.35;;;5.80;99.90;;;;;;5120721;28;20577;-59
2022/01/27 03:29:23;;;;;;;42.22;23.60;;;5.80;99.90;;;;;;5084826;28;20498;-59
2022/01/27 03:31:49;;;;;;;42.80;22.38;;;5.90;99.90;;;;;;5101706;28;20048;-59
2022/01/27 03:34:16;;;;;;;42.28;21.35;;;5.80;99.90;;;;;;5102464;28;20051;-59
2022/01/27 03:36:42;;;;;;;34.60;18.52;;;5.80;99.90;;;;;;5100597;28;20066;-59
2022/01/27 03:39:08;;;;;;;39.30;20.88;;;5.80;99.90;;;;;;5084017;28;20095;-59
2022/01/27 03:41:37;;;;;;;40.85;21.15;;;5.80;99.90;;;;;;5102498;28;20058;-59
2022/01/27 03:44:03;;;;;;;39.42;18.02;;;5.90;99.90;;;;;;5094655;28;20045;-60
2022/01/27 03:46:29;;;;;;;38.60;20.23;;;5.80;99.90;;;;;;5064415;28;20056;-59
2022/01/27 03:48:55;;;;;;;38.25;18.25;;;5.80;99.90;;;;;;5081239;28;20048;-60
2022/01/27 03:51:21;;;;;;;36.53;20.00;;;5.80;99.90;;;;;;5081704;28;20055;-59
2022/01/27 03:53:47;;;;;;;35.88;19.13;;;5.90;99.90;;;;;;5063219;28;20071;-59
2022/01/27 03:56:12;;;;;;;39.13;19.02;;;5.90;99.90;;;;;;5063568;28;20049;-59
2022/01/27 03:58:38;;;;;;;38.25;20.25;;;5.90;99.90;;;;;;5081981;28;20048;-59
2022/01/27 04:01:05;;;;;;;42.30;20.27;;;5.90;99.90;;;;;;5046497;28;20064;-59
2022/01/27 04:03:33;;;;;;;38.10;19.95;;;5.90;99.90;;;;;;5064392;28;20076;-59
2022/01/27 04:06:06;;;;;;;37.42;21.05;;;5.90;99.90;;;;;;5081227;28;20036;-59
2022/01/27 04:08:34;;;;;;;40.38;20.17;;;5.90;99.90;;;;;;5063366;28;20083;-60
2022/01/27 04:10:59;;;;;;;44.40;20.88;;;5.90;99.90;;;;;;5081247;28;20104;-59
2022/01/27 04:13:25;;;;;;;45.65;19.92;;;5.90;99.90;;;;;;5063065;28;20080;-59
2022/01/27 04:15:51;;;;;;;38.92;19.15;;;5.90;99.90;;;;;;5081503;28;20094;-58
2022/01/27 04:18:16;;;;;;;38.70;18.48;;;5.90;99.90;;;;;;5080831;28;20048;-59
2022/01/27 04:20:42;;;;;;;37.47;19.08;;;6.00;99.90;;;;;;5063177;28;20086;-59
2022/01/27 04:23:09;;;;;;;36.38;17.92;;;6.00;99.90;;;;;;5062887;28;20383;-59
2022/01/27 04:25:37;;;;;;;40.15;20.10;;;6.00;99.90;;;;;;5062903;28;20044;-58
2022/01/27 04:28:07;;;;;;;39.38;19.35;;;6.00;99.90;;;;;;5080810;28;20036;-58
2022/01/27 04:30:33;;;;;;;41.78;19.80;;;6.00;99.90;;;;;;5062695;28;20048;-58
2022/01/27 04:33:01;;;;;;;40.60;19.38;;;6.00;99.90;;;;;;5081388;28;20074;-58
2022/01/27 04:35:31;;;;;;;39.53;19.00;;;6.00;99.90;;;;;;5079793;28;20039;-58
2022/01/27 04:40:31;;;;;;;39.05;19.08;;;6.00;99.90;;;;;;5080268;28;20159;-59
2022/01/27 04:43:10;;;;;;;36.83;18.33;;;6.00;99.90;;;;;;5080802;28;20044;-58
2022/01/27 04:48:17;;;;;;;37.22;18.05;;;5.90;99.90;;;;;;5064156;28;20048;-59
2022/01/27 04:50:43;;;;;;;35.55;16.35;;;5.90;99.90;;;;;;5063363;28;20046;-58
2022/01/27 04:53:15;;;;;;;35.80;16.75;;;6.10;99.90;;;;;;5079918;28;20048;-58
2022/01/27 04:55:41;;;;;;;40.47;17.52;;;6.00;99.90;;;;;;5080666;28;20063;-59
2022/01/27 04:58:12;;;;;;;34.50;16.25;;;6.00;99.90;;;;;;5080066;28;20040;-59
2022/01/27 05:00:38;;;;;;;41.58;16.80;;;6.10;99.90;;;;;;5063059;28;20106;-59
2022/01/27 05:03:14;;;;;;;39.50;17.42;;;6.10;99.90;;;;;;5080500;28;20054;-59
2022/01/27 05:05:39;;;;;;;41.92;16.80;;;6.00;99.90;;;;;;5079647;28;20575;-59
2022/01/27 05:08:09;;;;;;;40.35;17.92;;;6.00;99.90;;;;;;5080444;28;20040;-59
2022/01/27 05:10:35;;;;;;;39.17;16.48;;;6.00;99.90;;;;;;5062723;28;20106;-59
2022/01/27 05:13:09;;;;;;;46.08;18.77;;;6.00;99.90;;;;;;5049249;28;20095;-59
2022/01/27 05:15:42;;;;;;;45.25;19.33;;;5.90;99.90;;;;;;5063299;28;20631;-59
2022/01/27 05:18:08;;;;;;;43.67;17.60;;;5.90;99.90;;;;;;5045785;28;20076;-59
2022/01/27 05:20:34;;;;;;;37.83;17.48;;;5.90;99.90;;;;;;5079962;28;20153;-59
2022/01/27 05:22:59;;;;;;;40.95;18.10;;;6.00;99.90;;;;;;5079437;28;20098;-59
2022/01/27 05:25:25;;;;;;;34.55;15.85;;;5.90;99.90;;;;;;5080140;28;20040;-59
2022/01/27 05:27:51;;;;;;;39.92;16.83;;;6.00;99.90;;;;;;5061486;28;20080;-59
2022/01/27 05:30:17;;;;;;;43.38;18.08;;;5.90;99.90;;;;;;5079724;28;20044;-58
2022/01/27 05:32:43;;;;;;;39.85;17.20;;;6.00;99.90;;;;;;5061593;28;20041;-59
2022/01/27 05:35:09;;;;;;;35.70;15.82;;;6.10;99.90;;;;;;5079497;28;20043;-59
2022/01/27 05:37:35;;;;;;;38.28;16.58;;;6.00;99.90;;;;;;5080283;28;20123;-58
2022/01/27 05:40:01;;;;;;;45.00;18.17;;;5.90;99.90;;;;;;5079306;28;20055;-59
2022/01/27 05:42:26;;;;;;;40.25;17.73;;;6.00;99.90;;;;;;5079768;28;20062;-59
2022/01/27 05:44:52;;;;;;;50.90;19.42;;;5.90;99.90;;;;;;5089364;28;20117;-59
2022/01/27 05:47:18;;;;;;;47.50;18.98;;;5.80;99.90;;;;;;5095988;28;20048;-59
2022/01/27 05:49:43;;;;;;;51.28;19.02;;;5.90;99.90;;;;;;5096011;28;20127;-59
2022/01/27 05:52:09;;;;;;;44.03;18.73;;;5.90;99.90;;;;;;5096287;28;20048;-60
2022/01/27 05:54:35;;;;;;;49.83;19.55;;;5.90;99.90;;;;;;5097031;28;20054;-60
2022/01/27 05:57:01;;;;;;;45.63;18.88;;;5.90;99.90;;;;;;5096102;28;20405;-60
2022/01/27 05:59:26;;;;;;;41.70;17.65;;;5.80;99.90;;;;;;5096246;28;20044;-60
2022/01/27 06:01:52;;;;;;;48.15;19.45;;;5.90;99.90;;;;;;5077522;28;20110;-59
2022/01/27 06:04:18;;;;;;;52.78;18.50;;;5.90;99.90;;;;;;5095723;28;20113;-60
2022/01/27 06:06:44;;;;;;;45.08;18.63;;;5.90;99.90;;;;;;5077249;28;20067;-60
2022/01/27 06:09:11;;;;;;;46.03;19.02;;;5.90;99.90;;;;;;5077391;28;20127;-60
2022/01/27 06:11:37;;;;;;;47.63;18.63;;;5.90;99.90;;;;;;5095666;28;20036;-60
2022/01/27 06:14:03;;;;;;;55.15;19.58;;;5.90;99.90;;;;;;5095754;28;20048;-59
2022/01/27 06:16:29;;;;;;;47.92;19.25;;;6.00;99.90;;;;;;5077376;28;20047;-59
2022/01/27 06:18:54;;;;;;;49.05;18.10;;;5.90;99.90;;;;;;5095272;28;20044;-60
2022/01/27 06:21:20;;;;;;;43.28;20.23;;;5.90;99.90;;;;;;5077075;28;20040;-60
2022/01/27 06:23:46;;;;;;;48.22;18.38;;;6.00;99.90;;;;;;5094793;28;20036;-60
2022/01/27 06:26:12;;;;;;;42.88;17.25;;;6.00;99.90;;;;;;5095224;28;20163;-60
2022/01/27 06:28:38;;;;;;;46.67;17.75;;;6.00;99.90;;;;;;5065983;28;20108;-60
2022/01/27 06:31:04;;;;;;;48.08;18.45;;;5.90;99.90;;;;;;5083088;28;20074;-60
2022/01/27 06:33:29;;;;;;;51.00;19.08;;;6.00;99.90;;;;;;5066662;28;20059;-59
2022/01/27 06:35:55;;;;;;;47.55;17.48;;;6.00;99.90;;;;;;5084519;28;20100;-60
2022/01/27 06:38:21;;;;;;;45.95;17.98;;;6.00;99.90;;;;;;5048553;28;20124;-59
2022/01/27 06:40:47;;;;;;;47.67;19.90;;;6.20;99.90;;;;;;5075926;28;20042;-60
2022/01/27 06:43:14;;;;;;;51.10;19.38;;;6.10;99.90;;;;;;5094170;28;20048;-60
2022/01/27 06:45:39;;;;;;;49.05;17.58;;;6.10;99.90;;;;;;5075864;28;20084;-60
2022/01/27 06:48:05;;;;;;;44.40;17.23;;;6.10;99.90;;;;;;5091283;28;20055;-60
2022/01/27 06:50:32;;;;;;;50.58;19.08;;;6.20;99.90;;;;;;5089885;28;20476;-60
2022/01/27 06:52:58;;;;;;;50.67;18.10;;;5.90;99.90;;;;;;5085763;28;20047;-60
2022/01/27 06:55:24;;;;;;;47.42;17.30;;;6.20;99.90;;;;;;5057673;28;20040;-59
2022/01/27 06:57:50;;;;;;;49.08;17.20;;;6.30;99.90;;;;;;5075157;28;20051;-60
2022/01/27 07:00:16;;;;;;;46.72;18.85;;;6.30;99.90;;;;;;5079490;28;20048;-61
2022/01/27 07:02:42;;;;;;;49.33;18.30;;;6.10;99.90;;;;;;5079852;28;20044;-60
2022/01/27 07:05:09;;;;;;;43.58;17.67;;;6.30;99.90;;;;;;5061118;28;20056;-60
2022/01/27 07:07:35;;;;;;;36.05;16.05;;;6.30;99.90;;;;;;5062258;28;20048;-60
2022/01/27 07:10:01;;;;;;;47.13;17.60;;;6.30;99.90;;;;;;5060527;28;20406;-60
2022/01/27 07:12:26;;;;;;;37.42;14.30;;;6.20;99.90;;;;;;5088939;28;20048;-60
2022/01/27 07:14:54;;;;;;;35.83;16.58;;;6.30;99.90;;;;;;5099131;28;20048;-60
2022/01/27 07:17:20;;;;;;;38.90;14.05;;;6.30;99.90;;;;;;5081665;28;20083;-60
2022/01/27 07:19:46;;;;;;;38.90;15.20;;;6.30;99.90;;;;;;5099235;28;20432;-60
2022/01/27 07:22:12;;;;;;;34.20;13.90;;;6.40;99.90;;;;;;5098965;28;20032;-60
2022/01/27 07:24:37;;;;;;;40.30;15.82;;;6.30;99.90;;;;;;5081560;28;20048;-60
2022/01/27 07:27:04;;;;;;;39.25;15.57;;;6.30;99.90;;;;;;5098844;28;20413;-60
2022/01/27 07:29:29;;;;;;;36.90;15.40;;;6.40;99.90;;;;;;5081118;28;20044;-60
2022/01/27 07:31:55;;;;;;;40.80;17.33;;;6.40;99.90;;;;;;5099078;28;20051;-60
2022/01/27 07:34:21;;;;;;;40.83;16.30;;;6.40;99.90;;;;;;5098803;28;20071;-60
2022/01/27 07:36:48;;;;;;;35.95;15.50;;;6.50;99.90;;;;;;5081075;28;20048;-60
2022/01/27 07:39:16;;;;;;;37.63;16.13;;;6.60;99.90;;;;;;5064213;28;20117;-60
2022/01/27 07:41:44;;;;;;;33.03;13.20;;;6.60;99.90;;;;;;5099469;28;20052;-60
2022/01/27 07:44:10;;;;;;;40.58;15.65;;;6.60;99.90;;;;;;5096036;28;20044;-60
2022/01/27 07:46:36;;;;;;;44.08;14.98;;;6.60;99.90;;;;;;5060361;28;20108;-60
2022/01/27 07:49:03;;;;;;;38.35;14.10;;;6.60;99.90;;;;;;5077917;28;20092;-60
2022/01/27 07:51:28;;;;;;;42.10;14.27;;;6.70;99.90;;;;;;5078243;28;20040;-60
2022/01/27 07:53:54;;;;;;;34.72;13.85;;;6.80;99.90;;;;;;5078420;28;20068;-60
2022/01/27 07:56:20;;;;;;;37.13;14.13;;;6.80;99.90;;;;;;5060422;28;20044;-60
2022/01/27 07:58:45;;;;;;;32.15;12.63;;;6.70;99.90;;;;;;5060538;28;20055;-60
2022/01/27 08:01:11;;;;;;;35.10;13.30;;;6.80;99.90;;;;;;5076554;28;20451;-60
2022/01/27 08:03:38;;;;;;;35.03;12.95;;;6.80;99.90;;;;;;5060634;28;20040;-60
2022/01/27 08:06:05;;;;;;;35.72;11.70;;;6.90;99.90;;;;;;5060101;28;20044;-60
2022/01/27 08:08:31;;;;;;;36.92;12.50;;;6.80;99.90;;;;;;5078361;28;20697;-60
2022/01/27 08:10:58;;;;;;;32.85;12.05;;;6.90;99.90;;;;;;5076265;28;20044;-59
2022/01/27 08:13:25;;;;;;;32.17;11.60;;;6.80;99.90;;;;;;5095658;28;20076;-60
2022/01/27 08:15:51;;;;;;;33.55;12.05;;;7.10;99.90;;;;;;5098692;28;20044;-59
2022/01/27 08:18:16;;;;;;;31.27;11.23;;;7.00;99.90;;;;;;5079755;28;20058;-59
2022/01/27 08:20:42;;;;;;;29.20;9.20;;;7.20;99.90;;;;;;5046914;28;20055;-59
2022/01/27 08:23:08;;;;;;;26.85;9.63;;;7.10;99.90;;;;;;5079449;28;20074;-60
2022/01/27 08:25:34;;;;;;;29.98;8.82;;;7.30;99.90;;;;;;5097994;28;20047;-59
2022/01/27 08:28:04;;;;;;;30.27;10.57;;;7.20;99.90;;;;;;5087274;28;20075;-60
2022/01/27 08:30:37;;;;;;;28.23;9.57;;;7.40;99.90;;;;;;5077906;28;20055;-60
2022/01/27 08:33:12;;;;;;;29.92;9.25;;;7.40;99.90;;;;;;5078283;28;20100;-59
2022/01/27 08:35:38;;;;;;;26.10;8.57;;;7.40;99.90;;;;;;5059160;28;20152;-60
2022/01/27 08:38:04;;;;;;;20.33;8.63;;;7.30;99.90;;;;;;5077560;28;20084;-60
2022/01/27 08:40:30;;;;;;;27.65;8.93;;;7.40;99.90;;;;;;5077231;28;20052;-60
2022/01/27 08:42:57;;;;;;;20.75;8.70;;;7.40;99.90;;;;;;5059369;28;20040;-60
2022/01/27 08:45:24;;;;;;;20.67;6.93;;;7.50;99.90;;;;;;5068423;28;20060;-59
2022/01/27 08:47:51;;;;;;;27.70;8.90;;;7.40;99.90;;;;;;5076811;28;20033;-59
2022/01/27 08:50:20;;;;;;;26.63;8.07;;;7.40;99.90;;;;;;5077806;28;20048;-60
2022/01/27 08:52:46;;;;;;;28.80;8.00;;;7.40;99.90;;;;;;5076967;28;20053;-60
2022/01/27 08:55:11;;;;;;;27.38;7.32;;;7.60;99.90;;;;;;5077279;28;20048;-60
2022/01/27 08:57:37;;;;;;;25.23;7.50;;;7.50;99.90;;;;;;5076787;28;20059;-60
2022/01/27 09:00:06;;;;;;;23.02;6.68;;;7.50;99.90;;;;;;5077000;28;20051;-60
2022/01/27 09:02:32;;;;;;;23.60;7.43;;;7.50;99.90;;;;;;5077234;28;20048;-60
2022/01/27 09:04:57;;;;;;;26.65;7.05;;;7.50;99.90;;;;;;5075821;28;20040;-60
2022/01/27 09:07:23;;;;;;;22.80;6.78;;;7.70;99.90;;;;;;5076033;28;20037;-59
2022/01/27 09:09:49;;;;;;;30.65;8.70;;;7.60;99.90;;;;;;5074991;28;20044;-60
2022/01/27 09:12:15;;;;;;;26.80;7.50;;;7.60;99.90;;;;;;5084443;28;20239;-61
2022/01/27 09:14:42;;;;;;;26.17;7.13;;;7.60;99.90;;;;;;5096763;28;20044;-59
2022/01/27 09:17:13;;;;;;;22.40;5.72;;;7.60;99.90;;;;;;5078470;28;20055;-59
2022/01/27 09:19:41;;;;;;;22.25;6.55;;;7.70;99.90;;;;;;5095371;28;20036;-61
2022/01/27 09:22:12;;;;;;;26.00;6.60;;;7.60;99.90;;;;;;5095758;28;20056;-60
2022/01/27 09:24:58;;;;;;;21.13;5.88;;;7.80;99.90;;;;;;5097819;28;20044;-60
2022/01/27 09:27:26;;;;;;;21.90;6.78;;;7.70;99.90;;;;;;5090867;28;20029;-60
2022/01/27 09:29:53;;;;;;;23.80;6.95;;;7.70;99.90;;;;;;5076693;28;20075;-60
2022/01/27 09:32:19;;;;;;;28.50;6.95;;;7.80;99.90;;;;;;5075034;28;20146;-59
2022/01/27 09:34:46;;;;;;;20.42;6.15;;;7.70;99.90;;;;;;5074794;28;20075;-60
2022/01/27 09:37:13;;;;;;;20.55;6.18;;;7.80;99.90;;;;;;5075297;28;20074;-59
2022/01/27 09:39:39;;;;;;;28.40;7.80;;;7.70;99.90;;;;;;5075976;28;20056;-59
2022/01/27 09:42:06;;;;;;;25.80;8.00;;;7.70;99.90;;;;;;5075389;28;20060;-60
2022/01/27 09:44:33;;;;;;;23.30;6.38;;;7.80;99.90;;;;;;5075993;28;20607;-60
2022/01/27 09:47:12;;;;;;;23.65;6.22;;;7.80;99.90;;;;;;5057842;28;20728;-60
2022/01/27 09:49:43;;;;;;;20.65;5.45;;;7.80;99.90;;;;;;5076327;28;20154;-59
2022/01/27 09:52:09;;;;;;;20.25;4.97;;;7.90;99.90;;;;;;5075357;28;20048;-59
2022/01/27 09:54:35;;;;;;;36.58;7.95;;;7.80;99.90;;;;;;5076588;28;20040;-59
2022/01/27 09:57:03;;;;;;;24.50;5.97;;;7.90;99.90;;;;;;5075712;28;20625;-60
2022/01/27 09:59:29;;;;;;;27.70;5.65;;;7.90;99.90;;;;;;5075885;28;20056;-60
2022/01/27 10:01:58;;;;;;;19.67;4.88;;;7.90;99.90;;;;;;5075884;28;20127;-60
2022/01/27 10:04:41;;;;;;;27.25;5.45;;;8.10;99.90;;;;;;5058042;28;20040;-60
2022/01/27 10:07:07;;;;;;;16.75;4.78;;;8.00;99.90;;;;;;5076560;28;20047;-59
2022/01/27 10:09:33;;;;;;;18.83;5.30;;;8.00;99.90;;;;;;5040657;28;20041;-59
2022/01/27 10:12:04;;;;;;;23.92;5.03;;;8.10;99.90;;;;;;5082755;28;20570;-59
2022/01/27 10:14:38;;;;;;;19.95;5.18;;;8.10;99.90;;;;;;5095900;28;20059;-59
2022/01/27 10:17:09;;;;;;;24.05;5.45;;;8.10;99.90;;;;;;5096043;28;20047;-59
2022/01/27 10:19:36;;;;;;;22.67;6.03;;;8.20;99.90;;;;;;5095643;28;20040;-59
2022/01/27 10:22:04;;;;;;;24.48;4.97;;;8.30;99.90;;;;;;5077159;28;20056;-59
2022/01/27 10:24:32;;;;;;;15.68;4.80;;;8.30;99.90;;;;;;5098581;28;20040;-61
2022/01/27 10:32:46;;;;;;;17.67;5.47;;;8.40;99.90;;;;;;5078130;28;20055;-61
2022/01/27 10:35:15;;;;;;;22.83;6.18;;;8.40;99.90;;;;;;5060388;28;20048;-60
2022/01/27 10:38:04;;;;;;;21.90;5.63;;;8.40;99.90;;;;;;5078984;28;20040;-60
2022/01/27 10:40:39;;;;;;;29.15;6.38;;;8.40;99.90;;;;;;5078482;28;20036;-60
2022/01/27 10:43:20;;;;;;;17.40;5.07;;;8.50;99.90;;;;;;5060094;28;20719;-59
2022/01/27 10:48:52;;;;;;;15.15;5.05;;;8.50;99.90;;;;;;5078139;28;20188;-61
2022/01/27 10:51:26;;;;;;;28.35;5.13;;;8.50;99.90;;;;;;5078139;28;20037;-60
2022/01/27 10:54:05;;;;;;;22.15;5.90;;;8.50;99.90;;;;;;5078497;28;20581;-60
2022/01/27 10:56:37;;;;;;;30.35;5.60;;;8.50;99.90;;;;;;5060205;28;20213;-60
2022/01/27 10:59:12;;;;;;;27.10;5.60;;;8.50;99.90;;;;;;5060942;28;20028;-60
2022/01/27 11:01:49;;;;;;;20.48;4.82;;;8.50;99.90;;;;;;5059913;28;20051;-60
2022/01/27 11:04:16;;;;;;;19.50;4.55;;;8.60;99.90;;;;;;5059991;28;20075;-60
2022/01/27 11:07:01;;;;;;;18.77;4.45;;;8.50;99.90;;;;;;5078422;28;20119;-60
2022/01/27 11:09:29;;;;;;;20.83;4.70;;;8.50;99.90;;;;;;5078028;28;20055;-60
2022/01/27 11:11:56;;;;;;;19.80;5.18;;;8.60;99.90;;;;;;5060505;28;20041;-60
2022/01/27 11:14:25;;;;;;;26.48;5.45;;;8.50;99.90;;;;;;5043590;28;20464;-60
2022/01/27 11:16:56;;;;;;;21.92;4.93;;;8.50;99.90;;;;;;5078237;28;20123;-60
2022/01/27 11:22:04;;;;;;;20.05;5.07;;;8.60;99.90;;;;;;5059537;28;20048;-59
2022/01/27 11:27:26;;;;;;;25.73;5.00;;;8.60;99.90;;;;;;5061290;28;20052;-60
2022/01/27 11:30:02;;;;;;;23.83;5.05;;;8.60;99.90;;;;;;5059852;28;20048;-62
2022/01/27 11:32:33;;;;;;;28.92;4.45;;;8.60;99.90;;;;;;5078012;28;20059;-59
2022/01/27 11:34:58;;;;;;;26.00;5.90;;;8.70;99.90;;;;;;5077976;28;20119;-60
2022/01/27 11:37:35;;;;;;;21.38;4.05;;;8.70;99.90;;;;;;5078614;28;20520;-60
2022/01/27 11:40:05;;;;;;;29.58;4.65;;;8.60;99.90;;;;;;5077755;28;20044;-61
2022/01/27 11:42:41;;;;;;;23.88;4.88;;;8.70;99.90;;;;;;5078222;28;20075;-60
2022/01/27 11:45:23;;;;;;;20.83;4.45;;;8.60;99.90;;;;;;5066638;28;20056;-60
2022/01/27 11:48:11;;;;;;;21.63;3.80;;;8.70;99.90;;;;;;5081124;28;20134;-60
2022/01/27 11:51:09;;;;;;;21.25;4.00;;;8.70;99.90;;;;;;5082016;28;20052;-61
2022/01/27 11:53:43;;;;;;;21.60;4.28;;;8.70;99.90;;;;;;5081215;28;20044;-60
2022/01/27 11:56:23;;;;;;;27.08;4.95;;;8.60;99.90;;;;;;5081285;28;20047;-59
2022/01/27 11:58:52;;;;;;;22.45;3.65;;;8.70;99.90;;;;;;5080603;28;20055;-59
2022/01/27 12:01:21;;;;;;;20.45;4.85;;;8.70;99.90;;;;;;5080913;28;20048;-60
2022/01/27 12:04:06;;;;;;;21.50;4.05;;;8.70;99.90;;;;;;5081199;28;20051;-60
2022/01/27 12:06:51;;;;;;;18.85;4.10;;;8.70;99.90;;;;;;5080960;28;20052;-59
2022/01/27 12:09:17;;;;;;;21.00;3.67;;;8.80;99.90;;;;;;5070217;28;20139;-59
2022/01/27 12:11:52;;;;;;;25.75;4.15;;;8.80;99.90;;;;;;5086133;28;20036;-60
2022/01/27 12:14:26;;;;;;;20.15;3.80;;;8.80;99.90;;;;;;5101044;28;20116;-60
2022/01/27 12:17:07;;;;;;;18.95;3.85;;;8.80;99.90;;;;;;5101429;28;20587;-60
2022/01/27 12:19:58;;;;;;;29.15;4.47;;;8.70;99.90;;;;;;5100967;28;20036;-59
2022/01/27 12:22:45;;;;;;;22.40;4.93;;;8.70;99.90;;;;;;5099964;28;20071;-59
2022/01/27 12:25:12;;;;;;;24.25;4.55;;;8.70;99.90;;;;;;5101608;28;20075;-59
2022/01/27 12:27:39;;;;;;;17.17;3.40;;;8.80;99.90;;;;;;5093058;28;20051;-60
2022/01/27 12:30:09;;;;;;;20.60;3.75;;;8.70;99.90;;;;;;5080356;28;20052;-59
2022/01/27 12:32:35;;;;;;;17.35;3.47;;;8.70;99.90;;;;;;5080880;28;20100;-59
2022/01/27 12:35:05;;;;;;;21.88;4.43;;;8.70;99.90;;;;;;5074370;28;20053;-59
2022/01/27 12:37:36;;;;;;;25.25;4.05;;;8.70;99.90;;;;;;5071306;28;20041;-59
2022/01/27 12:40:06;;;;;;;18.20;3.78;;;8.70;99.90;;;;;;5077181;28;20056;-60
2022/01/27 12:42:37;;;;;;;24.10;3.70;;;8.60;99.90;;;;;;5080676;28;20036;-60
2022/01/27 12:45:09;;;;;;;25.10;4.65;;;8.80;99.90;;;;;;5079557;28;20067;-61
2022/01/27 12:47:49;;;;;;;17.73;3.55;;;8.70;99.90;;;;;;5080736;28;20432;-60
2022/01/27 12:50:21;;;;;;;36.42;5.53;;;8.70;99.90;;;;;;5100992;28;20080;-61
2022/01/27 12:52:47;;;;;;;;;;;8.80;99.90;;;;;;5101110;28;20051;-60
2022/01/27 12:55:17;;;;;;;24.75;4.47;;;8.60;99.90;;;;;;5100411;28;19931;-60
2022/01/27 12:57:43;;;;;;;17.42;3.40;;;8.70;99.90;;;;;;5100031;28;20050;-60
2022/01/27 13:00:12;;;;;;;28.83;4.85;;;8.70;99.90;;;;;;5082136;28;20115;-61
2022/01/27 13:02:38;;;;;;;22.35;3.80;;;8.70;99.90;;;;;;5100700;28;20070;-60
2022/01/27 13:05:05;;;;;;;27.20;4.65;;;8.70;99.90;;;;;;5100179;28;20040;-61
2022/01/27 13:07:38;;;;;;;23.23;4.38;;;8.70;99.90;;;;;;5082393;28;20028;-60
2022/01/27 13:10:18;;;;;;;24.17;4.32;;;8.70;99.90;;;;;;5100258;28;20409;-60
2022/01/27 13:12:50;;;;;;;17.20;3.25;;;8.70;99.90;;;;;;5113430;28;20530;-60
2022/01/27 13:15:21;;;;;;;20.08;4.25;;;8.70;99.90;;;;;;5120363;28;20054;-60
2022/01/27 13:17:52;;;;;;;19.50;3.75;;;8.70;99.90;;;;;;5120546;28;20040;-61
2022/01/27 13:20:43;;;;;;;21.63;3.80;;;8.70;99.90;;;;;;5102338;28;20051;-60
2022/01/27 13:23:24;;;;;;;22.88;4.30;;;8.80;99.90;;;;;;5070260;28;20052;-60
2022/01/27 13:25:57;;;;;;;18.30;3.72;;;8.80;99.90;;;;;;5120129;28;20050;-61
2022/01/27 13:28:27;;;;;;;25.58;4.25;;;8.70;99.90;;;;;;5106457;28;20150;-60
2022/01/27 13:30:55;;;;;;;22.75;3.30;;;8.70;99.90;;;;;;5099721;28;20032;-61
2022/01/27 13:33:23;;;;;;;21.35;4.10;;;8.70;99.90;;;;;;5100225;28;20047;-60
2022/01/27 13:35:50;;;;;;;26.33;5.00;;;8.60;99.90;;;;;;5099660;28;20496;-60
2022/01/27 13:38:28;;;;;;;26.95;3.88;;;8.60;99.90;;;;;;5081766;28;20478;-60
2022/01/27 13:41:39;;;;;;;24.80;4.20;;;8.50;99.90;;;;;;5081207;28;20048;-60
2022/01/27 13:44:15;;;;;;;24.15;4.65;;;8.50;99.90;;;;;;5095194;28;20062;-60